Time;durP1;ratioP1;P1;durP2;ratioP2;P2;SDS_P1;SDS_P2;PMS_P1;PMS_P2;Temp;Humidity;BMP_temperature;BMP_pressure;BME280_temperature;BME280_humidity;BME280_pressure;Samples;Min_cycle;Max_cycle;Signal;HPM_P1;HPM_P2
2020/12/27 00:02:07;;;;;;;1.60;1.42;;;;;;;;;;5069227;28;20213;-77
2020/12/27 00:04:34;;;;;;;1.65;1.55;;;;;;;;;;5065298;28;20625;-75
2020/12/27 00:07:02;;;;;;;1.98;1.40;;;;;;;;;;5067294;28;20199;-77
2020/12/27 00:09:29;;;;;;;1.70;1.60;;;;;;;;;;5068999;28;20194;-75
2020/12/27 00:11:56;;;;;;;1.50;1.40;;;;;;;;;;5072071;28;20191;-78
2020/12/27 00:14:23;;;;;;;1.70;1.60;;;;;;;;;;5071860;28;20220;-77
2020/12/27 00:16:50;;;;;;;1.73;1.30;;;;;;;;;;5074672;28;20222;-77
2020/12/27 00:19:17;;;;;;;2.55;1.60;;;;;;;;;;5074403;28;20197;-76
2020/12/27 00:21:44;;;;;;;1.40;1.30;;;;;;;;;;5074317;28;20240;-76
2020/12/27 00:24:11;;;;;;;2.38;1.60;;;;;;;;;;5072396;28;20592;-76
2020/12/27 00:26:38;;;;;;;2.00;1.80;;;;;;;;;;5068465;28;20553;-76
2020/12/27 00:29:04;;;;;;;3.38;1.80;;;;;;;;;;5070540;28;20365;-75
2020/12/27 00:31:31;;;;;;;1.50;1.40;;;;;;;;;;5071768;28;20216;-75
2020/12/27 00:33:58;;;;;;;2.97;1.48;;;;;;;;;;5071793;28;20620;-76
2020/12/27 00:36:26;;;;;;;2.05;1.40;;;;;;;;;;5071760;28;20573;-76
2020/12/27 00:38:53;;;;;;;2.10;1.42;;;;;;;;;;5073981;28;20650;-76
2020/12/27 00:41:21;;;;;;;1.65;1.45;;;;;;;;;;5073556;28;20312;-76
2020/12/27 00:43:48;;;;;;;1.45;1.35;;;;;;;;;;5073823;28;20761;-76
2020/12/27 00:46:15;;;;;;;2.60;1.48;;;;;;;;;;5072324;28;20285;-76
2020/12/27 00:48:42;;;;;;;1.30;1.20;;;;;;;;;;5068187;28;20609;-77
2020/12/27 00:51:08;;;;;;;1.42;1.33;;;;;;;;;;5070403;28;20204;-76
2020/12/27 00:53:36;;;;;;;1.30;1.20;;;;;;;;;;5071070;28;20228;-76
2020/12/27 00:56:03;;;;;;;1.40;1.30;;;;;;;;;;5071385;28;20202;-76
2020/12/27 00:58:31;;;;;;;1.50;1.40;;;;;;;;;;5071691;28;20202;-76
2020/12/27 01:00:58;;;;;;;1.70;1.50;;;;;;;;;;5073615;28;20221;-77
2020/12/27 01:03:26;;;;;;;2.05;1.60;;;;;;;;;;5073365;28;20214;-76
2020/12/27 01:05:52;;;;;;;1.65;1.55;;;;;;;;;;5073454;28;20190;-77
2020/12/27 01:08:19;;;;;;;2.03;1.60;;;;;;;;;;5071728;28;20198;-75
2020/12/27 01:10:47;;;;;;;1.63;1.52;;;;;;;;;;5067446;28;20205;-76
2020/12/27 01:13:14;;;;;;;2.33;1.10;;;;;;;;;;5069675;28;20207;-77
2020/12/27 01:15:41;;;;;;;1.88;1.35;;;;;;;;;;5071018;28;20190;-76
2020/12/27 01:18:08;;;;;;;1.40;1.30;;;;;;;;;;5070991;28;20281;-76
2020/12/27 01:20:35;;;;;;;2.65;1.42;;;;;;;;;;5069920;28;20227;-75
2020/12/27 01:23:03;;;;;;;1.27;1.17;;;;;;;;;;5072236;28;20226;-77
2020/12/27 01:25:30;;;;;;;1.52;1.42;;;;;;;;;;5072770;28;20209;-76
2020/12/27 01:27:58;;;;;;;3.50;1.50;;;;;;;;;;5072869;28;20251;-76
2020/12/27 01:30:24;;;;;;;1.50;1.40;;;;;;;;;;5071359;28;20281;-77
2020/12/27 01:32:51;;;;;;;1.95;1.52;;;;;;;;;;5065681;28;20194;-76
2020/12/27 01:35:18;;;;;;;1.65;1.50;;;;;;;;;;5069473;28;20718;-77
2020/12/27 01:37:45;;;;;;;1.60;1.30;;;;;;;;;;5070660;28;20289;-76
2020/12/27 01:40:12;;;;;;;2.75;1.60;;;;;;;;;;5070483;28;20199;-76
2020/12/27 01:42:39;;;;;;;2.05;1.25;;;;;;;;;;5070459;28;20260;-75
2020/12/27 01:45:06;;;;;;;1.48;1.35;;;;;;;;;;5072538;28;20194;-76
2020/12/27 01:47:34;;;;;;;2.10;1.58;;;;;;;;;;5072611;28;20194;-76
2020/12/27 01:50:02;;;;;;;1.52;1.40;;;;;;;;;;5072439;28;20307;-76
2020/12/27 01:52:29;;;;;;;3.20;1.50;;;;;;;;;;5070466;28;20309;-76
2020/12/27 01:54:55;;;;;;;1.58;1.45;;;;;;;;;;5066229;28;20779;-77
2020/12/27 01:57:23;;;;;;;1.45;1.27;;;;;;;;;;5069158;28;20194;-75
2020/12/27 01:59:52;;;;;;;2.20;1.60;;;;;;;;;;5069886;28;20374;-76
2020/12/27 02:02:20;;;;;;;1.50;1.40;;;;;;;;;;5069827;28;20292;-75
2020/12/27 02:04:47;;;;;;;1.35;1.20;;;;;;;;;;5069803;28;20214;-77
2020/12/27 02:07:14;;;;;;;2.00;1.40;;;;;;;;;;5072099;28;20592;-75
2020/12/27 02:09:41;;;;;;;1.55;1.30;;;;;;;;;;5072023;28;20194;-77
2020/12/27 02:12:08;;;;;;;1.60;1.50;;;;;;;;;;5072023;28;20240;-75
2020/12/27 02:14:35;;;;;;;1.70;1.25;;;;;;;;;;5069965;28;20275;-76
2020/12/27 02:17:03;;;;;;;1.60;1.30;;;;;;;;;;5066184;28;20217;-76
2020/12/27 02:19:30;;;;;;;2.53;1.55;;;;;;;;;;5068710;28;20237;-75
2020/12/27 02:21:57;;;;;;;1.30;1.13;;;;;;;;;;5068226;28;20228;-77
2020/12/27 02:24:25;;;;;;;1.27;1.17;;;;;;;;;;5068431;28;20221;-75
2020/12/27 02:26:55;;;;;;;1.95;1.40;;;;;;;;;;5069853;28;20203;-77
2020/12/27 02:29:22;;;;;;;1.27;1.15;;;;;;;;;;5071590;28;20225;-77
2020/12/27 02:31:49;;;;;;;1.45;1.10;;;;;;;;;;5071502;28;20197;-76
2020/12/27 02:34:16;;;;;;;1.40;1.30;;;;;;;;;;5071242;28;20220;-77
2020/12/27 02:36:43;;;;;;;1.20;1.10;;;;;;;;;;5069883;28;20650;-76
2020/12/27 02:39:10;;;;;;;1.10;1.00;;;;;;;;;;5066095;28;20811;-76
2020/12/27 02:41:39;;;;;;;1.10;1.00;;;;;;;;;;5068415;28;20265;-76
2020/12/27 02:44:06;;;;;;;1.20;1.10;;;;;;;;;;5067610;28;20224;-75
2020/12/27 02:46:33;;;;;;;1.17;1.00;;;;;;;;;;5069240;28;20187;-77
2020/12/27 02:49:01;;;;;;;1.23;1.13;;;;;;;;;;5069533;28;20198;-75
2020/12/27 02:51:28;;;;;;;1.70;1.35;;;;;;;;;;5071225;28;20766;-76
2020/12/27 02:53:56;;;;;;;1.20;1.10;;;;;;;;;;5071119;28;20582;-76
2020/12/27 02:56:24;;;;;;;1.00;0.90;;;;;;;;;;5071328;28;20248;-76
2020/12/27 02:58:52;;;;;;;1.45;0.90;;;;;;;;;;5068921;28;20251;-77
2020/12/27 03:01:19;;;;;;;1.52;1.00;;;;;;;;;;5064042;28;20712;-75
2020/12/27 03:03:46;;;;;;;1.35;1.10;;;;;;;;;;5068294;28;20217;-76
2020/12/27 03:06:13;;;;;;;1.27;1.17;;;;;;;;;;5069106;28;20315;-77
2020/12/27 03:08:41;;;;;;;1.50;1.30;;;;;;;;;;5069046;28;20208;-76
2020/12/27 03:11:08;;;;;;;1.17;1.08;;;;;;;;;;5069428;28;20190;-76
2020/12/27 03:13:35;;;;;;;1.00;0.90;;;;;;;;;;5070946;28;20271;-75
2020/12/27 03:16:04;;;;;;;1.75;1.00;;;;;;;;;;5071183;28;20713;-76
2020/12/27 03:18:31;;;;;;;1.95;0.90;;;;;;;;;;5071264;28;20198;-76
2020/12/27 03:20:58;;;;;;;1.45;0.98;;;;;;;;;;5068607;28;20281;-75
2020/12/27 03:23:25;;;;;;;1.63;1.30;;;;;;;;;;5065378;28;20214;-76
2020/12/27 03:25:52;;;;;;;1.63;1.25;;;;;;;;;;5068448;28;20187;-76
2020/12/27 03:28:19;;;;;;;1.45;1.10;;;;;;;;;;5067375;28;20247;-76
2020/12/27 03:30:46;;;;;;;1.20;1.10;;;;;;;;;;5069166;28;20671;-76
2020/12/27 03:33:13;;;;;;;2.45;1.20;;;;;;;;;;5069200;28;20616;-76
2020/12/27 03:35:40;;;;;;;1.30;0.93;;;;;;;;;;5071103;28;20208;-76
2020/12/27 03:38:07;;;;;;;1.45;1.00;;;;;;;;;;5071014;28;20532;-76
2020/12/27 03:40:34;;;;;;;1.20;1.10;;;;;;;;;;5070998;28;20201;-75
2020/12/27 03:43:01;;;;;;;1.00;0.85;;;;;;;;;;5068649;28;20313;-75
2020/12/27 03:45:28;;;;;;;1.15;0.90;;;;;;;;;;5067497;28;20183;-75
2020/12/27 03:47:54;;;;;;;1.13;1.02;;;;;;;;;;5072072;28;20195;-75
2020/12/27 03:50:23;;;;;;;1.08;0.90;;;;;;;;;;5072385;28;20190;-75
2020/12/27 03:52:50;;;;;;;1.23;1.10;;;;;;;;;;5072118;28;20236;-76
2020/12/27 03:55:17;;;;;;;1.60;0.90;;;;;;;;;;5072683;28;20197;-75
2020/12/27 03:57:44;;;;;;;1.50;0.90;;;;;;;;;;5074315;28;20698;-76
2020/12/27 04:00:10;;;;;;;1.15;0.98;;;;;;;;;;5073500;28;20267;-75
2020/12/27 04:02:37;;;;;;;1.08;0.95;;;;;;;;;;5074386;28;20313;-75
2020/12/27 04:05:04;;;;;;;1.27;1.05;;;;;;;;;;5072176;28;20539;-76
2020/12/27 04:07:32;;;;;;;1.30;1.20;;;;;;;;;;5068809;28;20669;-76
2020/12/27 04:09:59;;;;;;;1.70;1.08;;;;;;;;;;5071681;28;20194;-76
2020/12/27 04:12:26;;;;;;;1.33;1.00;;;;;;;;;;5072347;28;20245;-75
2020/12/27 04:14:53;;;;;;;1.08;0.80;;;;;;;;;;5072082;28;20706;-75
2020/12/27 04:17:20;;;;;;;1.85;0.90;;;;;;;;;;5072429;28;20249;-76
2020/12/27 04:19:47;;;;;;;2.35;0.90;;;;;;;;;;5073029;28;20196;-76
2020/12/27 04:22:14;;;;;;;1.23;0.80;;;;;;;;;;5073999;28;20843;-76
2020/12/27 04:24:42;;;;;;;1.10;0.90;;;;;;;;;;5074196;28;20275;-76
2020/12/27 04:27:08;;;;;;;1.50;1.27;;;;;;;;;;5071964;28;20209;-77
2020/12/27 04:29:35;;;;;;;1.80;0.82;;;;;;;;;;5068396;28;20195;-75
2020/12/27 04:32:02;;;;;;;0.90;0.80;;;;;;;;;;5071418;28;20212;-75
2020/12/27 04:34:29;;;;;;;1.10;0.80;;;;;;;;;;5071575;28;20267;-75
2020/12/27 04:36:56;;;;;;;1.27;1.00;;;;;;;;;;5071670;28;20222;-76
2020/12/27 04:39:22;;;;;;;0.80;0.80;;;;;;;;;;5072256;28;20195;-75
2020/12/27 04:41:51;;;;;;;0.80;0.80;;;;;;;;;;5073743;28;20768;-75
2020/12/27 04:44:18;;;;;;;1.38;0.80;;;;;;;;;;5072620;28;20229;-76
2020/12/27 04:46:45;;;;;;;1.00;0.80;;;;;;;;;;5073607;28;20562;-75
2020/12/27 04:49:11;;;;;;;1.00;0.77;;;;;;;;;;5071351;28;20191;-75
2020/12/27 04:51:38;;;;;;;0.80;0.77;;;;;;;;;;5067521;28;20244;-75
2020/12/27 04:54:05;;;;;;;0.90;0.80;;;;;;;;;;5070379;28;20758;-75
2020/12/27 04:56:32;;;;;;;1.00;0.90;;;;;;;;;;5070287;28;20200;-76
2020/12/27 04:59:00;;;;;;;0.80;0.80;;;;;;;;;;5071323;28;20252;-75
2020/12/27 05:01:27;;;;;;;0.88;0.70;;;;;;;;;;5071582;28;20198;-75
2020/12/27 05:03:56;;;;;;;0.90;0.80;;;;;;;;;;5073459;28;20629;-75
2020/12/27 05:06:23;;;;;;;0.90;0.80;;;;;;;;;;5073513;28;20194;-75
2020/12/27 05:08:50;;;;;;;1.58;0.93;;;;;;;;;;5073353;28;20534;-75
2020/12/27 05:11:17;;;;;;;1.00;0.90;;;;;;;;;;5071031;28;20225;-75
2020/12/27 05:13:44;;;;;;;2.17;1.00;;;;;;;;;;5066505;28;20214;-75
2020/12/27 05:16:12;;;;;;;1.42;1.25;;;;;;;;;;5070297;28;20678;-75
2020/12/27 05:18:39;;;;;;;0.90;0.80;;;;;;;;;;5070923;28;20267;-75
2020/12/27 05:21:06;;;;;;;1.00;0.77;;;;;;;;;;5070933;28;20202;-76
2020/12/27 05:23:33;;;;;;;1.80;0.70;;;;;;;;;;5070948;28;20862;-75
2020/12/27 05:26:05;;;;;;;0.90;0.70;;;;;;;;;;5073088;28;20277;-76
2020/12/27 05:28:33;;;;;;;1.00;0.90;;;;;;;;;;5071700;28;20600;-76
2020/12/27 05:31:09;;;;;;;1.10;1.00;;;;;;;;;;5072582;28;20201;-76
2020/12/27 05:33:38;;;;;;;1.10;1.00;;;;;;;;;;5069727;28;20628;-75
2020/12/27 05:36:05;;;;;;;0.80;0.73;;;;;;;;;;5067755;28;20195;-75
2020/12/27 05:38:32;;;;;;;1.25;0.90;;;;;;;;;;5070059;28;20280;-76
2020/12/27 05:40:59;;;;;;;1.55;1.10;;;;;;;;;;5070455;28;20208;-75
2020/12/27 05:43:31;;;;;;;1.13;0.85;;;;;;;;;;5070132;28;20479;-75
2020/12/27 05:45:58;;;;;;;1.10;0.98;;;;;;;;;;5070981;28;20293;-76
2020/12/27 05:48:25;;;;;;;1.25;0.90;;;;;;;;;;5072649;28;20205;-76
2020/12/27 05:50:53;;;;;;;1.00;0.80;;;;;;;;;;5072732;28;20223;-76
2020/12/27 05:53:20;;;;;;;1.00;0.90;;;;;;;;;;5072137;28;20266;-75
2020/12/27 05:55:48;;;;;;;1.05;0.85;;;;;;;;;;5068879;28;20197;-76
2020/12/27 05:58:18;;;;;;;1.00;0.82;;;;;;;;;;5067283;28;20186;-75
2020/12/27 06:00:45;;;;;;;1.00;0.90;;;;;;;;;;5068480;28;20218;-76
2020/12/27 06:03:18;;;;;;;1.00;0.90;;;;;;;;;;5069923;28;20221;-76
2020/12/27 06:06:00;;;;;;;1.95;0.95;;;;;;;;;;5070311;28;20531;-75
2020/12/27 06:08:45;;;;;;;1.17;0.80;;;;;;;;;;5069748;28;20575;-76
2020/12/27 06:11:23;;;;;;;1.00;0.90;;;;;;;;;;5071930;28;20221;-76
2020/12/27 06:14:00;;;;;;;0.90;0.80;;;;;;;;;;5072022;28;20219;-77
2020/12/27 06:16:35;;;;;;;1.23;0.90;;;;;;;;;;5071672;28;20208;-76
2020/12/27 06:19:04;;;;;;;0.90;0.75;;;;;;;;;;5065141;28;20198;-75
2020/12/27 06:21:35;;;;;;;1.10;0.98;;;;;;;;;;5067462;28;20202;-75
2020/12/27 06:24:04;;;;;;;0.80;0.70;;;;;;;;;;5069028;28;20721;-75
2020/12/27 06:26:31;;;;;;;1.05;0.75;;;;;;;;;;5069406;28;20190;-75
2020/12/27 06:28:58;;;;;;;0.90;0.80;;;;;;;;;;5069201;28;20662;-76
2020/12/27 06:31:25;;;;;;;1.65;0.88;;;;;;;;;;5067044;28;20240;-74
2020/12/27 06:33:52;;;;;;;0.90;0.80;;;;;;;;;;5064832;28;20337;-75
2020/12/27 06:36:33;;;;;;;1.40;1.00;;;;;;;;;;5049028;28;20285;-75
2020/12/27 06:39:00;;;;;;;1.00;0.80;;;;;;;;;;5048150;28;20195;-75
2020/12/27 06:41:27;;;;;;;0.70;0.70;;;;;;;;;;5049665;28;20286;-75
2020/12/27 06:43:54;;;;;;;1.23;0.90;;;;;;;;;;5058942;28;20266;-76
2020/12/27 06:46:24;;;;;;;0.80;0.70;;;;;;;;;;5071468;28;20487;-75
2020/12/27 06:48:51;;;;;;;0.90;0.70;;;;;;;;;;5053061;28;20593;-76
2020/12/27 06:51:33;;;;;;;0.80;0.70;;;;;;;;;;5051458;28;20290;-75
2020/12/27 06:54:00;;;;;;;0.80;0.70;;;;;;;;;;5057081;28;20718;-76
2020/12/27 06:56:37;;;;;;;1.00;0.90;;;;;;;;;;5065736;28;20204;-76
2020/12/27 06:59:04;;;;;;;0.80;0.70;;;;;;;;;;5068848;28;20202;-75
2020/12/27 07:01:31;;;;;;;1.27;0.80;;;;;;;;;;5069217;28;20970;-76
2020/12/27 07:04:11;;;;;;;0.90;0.70;;;;;;;;;;5069818;28;20210;-75
2020/12/27 07:06:40;;;;;;;0.80;0.80;;;;;;;;;;5068662;28;20194;-80
2020/12/27 07:09:07;;;;;;;0.90;0.80;;;;;;;;;;5069337;28;20190;-79
2020/12/27 07:11:34;;;;;;;0.90;0.70;;;;;;;;;;5071369;28;20349;-80
2020/12/27 07:14:02;;;;;;;2.00;0.77;;;;;;;;;;5061113;28;20215;-80
2020/12/27 07:16:39;;;;;;;0.80;0.70;;;;;;;;;;5059180;28;20265;-75
2020/12/27 07:19:06;;;;;;;1.65;0.70;;;;;;;;;;5065928;28;20631;-76
2020/12/27 07:21:37;;;;;;;1.10;0.80;;;;;;;;;;5070912;28;20198;-75
2020/12/27 07:24:18;;;;;;;0.77;0.68;;;;;;;;;;5057945;28;20210;-75
2020/12/27 07:26:47;;;;;;;0.77;0.70;;;;;;;;;;5072548;28;20255;-75
2020/12/27 07:29:15;;;;;;;0.90;0.70;;;;;;;;;;5073860;28;20285;-75
2020/12/27 07:31:42;;;;;;;0.90;0.70;;;;;;;;;;5074936;28;20562;-78
2020/12/27 07:34:09;;;;;;;0.90;0.80;;;;;;;;;;5074668;28;20220;-75
2020/12/27 07:36:37;;;;;;;0.80;0.77;;;;;;;;;;5064543;28;20198;-72
2020/12/27 07:39:04;;;;;;;0.80;0.70;;;;;;;;;;5071129;28;20213;-74
2020/12/27 07:41:34;;;;;;;1.02;0.90;;;;;;;;;;5069984;28;20192;-72
2020/12/27 07:44:02;;;;;;;1.88;0.80;;;;;;;;;;5072088;28;20207;-73
2020/12/27 07:46:29;;;;;;;0.80;0.80;;;;;;;;;;5072259;28;20559;-73
2020/12/27 07:48:56;;;;;;;1.38;1.00;;;;;;;;;;5072858;28;20474;-73
2020/12/27 07:51:24;;;;;;;0.70;0.70;;;;;;;;;;5073163;28;20213;-74
2020/12/27 07:53:51;;;;;;;0.90;0.80;;;;;;;;;;5073983;28;20678;-74
2020/12/27 07:56:18;;;;;;;0.90;0.80;;;;;;;;;;5054656;28;20203;-73
2020/12/27 07:58:48;;;;;;;1.10;1.00;;;;;;;;;;5054522;28;20336;-74
2020/12/27 08:01:18;;;;;;;1.88;0.95;;;;;;;;;;5063034;28;20189;-74
2020/12/27 08:03:45;;;;;;;1.20;0.80;;;;;;;;;;5069858;28;20213;-73
2020/12/27 08:06:17;;;;;;;0.80;0.60;;;;;;;;;;5071674;28;20194;-72
2020/12/27 08:08:44;;;;;;;0.90;0.70;;;;;;;;;;5070761;28;20191;-74
2020/12/27 08:11:18;;;;;;;0.80;0.80;;;;;;;;;;5073221;28;20553;-73
2020/12/27 08:13:50;;;;;;;0.85;0.80;;;;;;;;;;5072852;28;20210;-75
2020/12/27 08:16:17;;;;;;;1.27;0.80;;;;;;;;;;5074285;28;20220;-73
2020/12/27 08:18:44;;;;;;;1.00;0.90;;;;;;;;;;5074159;28;20730;-73
2020/12/27 08:21:11;;;;;;;0.90;0.80;;;;;;;;;;5074221;28;20200;-74
2020/12/27 08:23:38;;;;;;;1.00;0.90;;;;;;;;;;5069524;28;20229;-73
2020/12/27 08:26:05;;;;;;;1.70;1.10;;;;;;;;;;5068892;28;20216;-78
2020/12/27 08:28:35;;;;;;;1.20;0.90;;;;;;;;;;5071575;28;20190;-72
2020/12/27 08:31:02;;;;;;;1.00;0.90;;;;;;;;;;5067186;28;20227;-74
2020/12/27 08:33:29;;;;;;;1.45;1.00;;;;;;;;;;5052919;28;20215;-76
2020/12/27 08:35:57;;;;;;;4.05;1.10;;;;;;;;;;5056543;28;20213;-73
2020/12/27 08:38:29;;;;;;;1.27;1.00;;;;;;;;;;5065417;28;20248;-74
2020/12/27 08:41:00;;;;;;;1.00;0.80;;;;;;;;;;5068785;28;20198;-74
2020/12/27 08:43:30;;;;;;;1.02;0.68;;;;;;;;;;5071589;28;20230;-74
2020/12/27 08:45:57;;;;;;;0.90;0.80;;;;;;;;;;5071862;28;20201;-74
2020/12/27 08:48:29;;;;;;;0.90;0.70;;;;;;;;;;5058481;28;20282;-74
2020/12/27 08:50:58;;;;;;;1.00;0.90;;;;;;;;;;5053111;28;20203;-74
2020/12/27 08:53:25;;;;;;;0.85;0.73;;;;;;;;;;5053420;28;20238;-74
2020/12/27 08:55:52;;;;;;;1.08;0.98;;;;;;;;;;5053753;28;20196;-75
2020/12/27 08:58:19;;;;;;;1.05;0.80;;;;;;;;;;5053797;28;20201;-75
2020/12/27 09:00:47;;;;;;;0.90;0.70;;;;;;;;;;5063594;28;21519;-74
2020/12/27 09:03:14;;;;;;;1.10;0.80;;;;;;;;;;5068282;28;20221;-74
2020/12/27 09:05:41;;;;;;;0.90;0.80;;;;;;;;;;5071132;28;20195;-73
2020/12/27 09:08:16;;;;;;;1.23;0.90;;;;;;;;;;5056605;28;20194;-73
2020/12/27 09:10:43;;;;;;;0.80;0.70;;;;;;;;;;5051837;28;20733;-74
2020/12/27 09:13:11;;;;;;;0.90;0.80;;;;;;;;;;5052412;28;20226;-74
2020/12/27 09:15:38;;;;;;;1.27;0.88;;;;;;;;;;5053393;28;20248;-73
2020/12/27 09:18:12;;;;;;;0.80;0.80;;;;;;;;;;5051776;28;20286;-74
2020/12/27 09:20:39;;;;;;;0.80;0.80;;;;;;;;;;5053315;28;20202;-74
2020/12/27 09:23:14;;;;;;;1.00;0.90;;;;;;;;;;5063918;28;20238;-74
2020/12/27 09:25:42;;;;;;;1.50;1.05;;;;;;;;;;5068337;28;20280;-74
2020/12/27 09:28:13;;;;;;;0.80;0.70;;;;;;;;;;5068977;28;20194;-74
2020/12/27 09:30:40;;;;;;;1.25;0.80;;;;;;;;;;5068492;28;20198;-75
2020/12/27 09:33:07;;;;;;;0.90;0.70;;;;;;;;;;5070473;28;20214;-74
2020/12/27 09:35:34;;;;;;;0.90;0.80;;;;;;;;;;5071677;28;20198;-74
2020/12/27 09:38:01;;;;;;;1.00;0.90;;;;;;;;;;5071706;28;20200;-74
2020/12/27 09:40:29;;;;;;;0.80;0.75;;;;;;;;;;5072801;28;20259;-74
2020/12/27 09:43:03;;;;;;;2.45;0.85;;;;;;;;;;5069074;28;20316;-74
2020/12/27 09:45:31;;;;;;;1.08;0.98;;;;;;;;;;5067535;28;20300;-74
2020/12/27 09:47:58;;;;;;;0.82;0.80;;;;;;;;;;5069810;28;20255;-73
2020/12/27 09:50:26;;;;;;;1.08;0.75;;;;;;;;;;5070285;28;20558;-74
2020/12/27 09:52:52;;;;;;;1.15;0.90;;;;;;;;;;5070245;28;20222;-74
2020/12/27 09:55:19;;;;;;;1.05;0.88;;;;;;;;;;5071176;28;20197;-73
2020/12/27 09:57:47;;;;;;;1.00;0.82;;;;;;;;;;5072279;28;20281;-73
2020/12/27 10:00:14;;;;;;;1.27;0.90;;;;;;;;;;5072463;28;20305;-74
2020/12/27 10:02:41;;;;;;;0.80;0.80;;;;;;;;;;5072318;28;20249;-73
2020/12/27 10:05:10;;;;;;;1.90;1.00;;;;;;;;;;5067334;28;20252;-73
2020/12/27 10:07:37;;;;;;;1.10;0.88;;;;;;;;;;5067309;28;20543;-74
2020/12/27 10:10:04;;;;;;;1.33;0.95;;;;;;;;;;5069384;28;20246;-74
2020/12/27 10:12:31;;;;;;;1.00;0.80;;;;;;;;;;5068517;28;20651;-74
2020/12/27 10:14:59;;;;;;;0.90;0.73;;;;;;;;;;5070252;28;20218;-73
2020/12/27 10:17:26;;;;;;;1.05;0.95;;;;;;;;;;5070653;28;20660;-73
2020/12/27 10:19:53;;;;;;;2.30;1.10;;;;;;;;;;5072028;28;20197;-74
2020/12/27 10:22:20;;;;;;;2.38;0.90;;;;;;;;;;5071991;28;20700;-74
2020/12/27 10:24:47;;;;;;;3.35;1.00;;;;;;;;;;5071683;28;20580;-74
2020/12/27 10:27:13;;;;;;;1.38;1.05;;;;;;;;;;5068063;28;20558;-75
2020/12/27 10:29:40;;;;;;;1.05;0.95;;;;;;;;;;5066946;28;20191;-74
2020/12/27 10:32:08;;;;;;;1.13;0.90;;;;;;;;;;5069062;28;20204;-74
2020/12/27 10:34:36;;;;;;;1.00;0.90;;;;;;;;;;5069355;28;20218;-75
2020/12/27 10:37:04;;;;;;;1.05;0.90;;;;;;;;;;5069632;28;20246;-74
2020/12/27 10:39:31;;;;;;;0.95;0.88;;;;;;;;;;5070273;28;20210;-73
2020/12/27 10:41:59;;;;;;;1.10;0.90;;;;;;;;;;5071648;28;20703;-74
2020/12/27 10:44:26;;;;;;;1.30;1.20;;;;;;;;;;5071594;28;20313;-75
2020/12/27 10:46:53;;;;;;;1.00;0.90;;;;;;;;;;5070536;28;20300;-74
2020/12/27 10:49:22;;;;;;;1.38;0.80;;;;;;;;;;5065779;28;20208;-74
2020/12/27 10:51:49;;;;;;;1.10;1.00;;;;;;;;;;5067884;28;20193;-75
2020/12/27 10:54:16;;;;;;;1.65;1.00;;;;;;;;;;5068569;28;20301;-74
2020/12/27 10:56:43;;;;;;;1.05;0.80;;;;;;;;;;5069483;28;20230;-76
2020/12/27 10:59:10;;;;;;;1.17;0.90;;;;;;;;;;5069155;28;20569;-74
2020/12/27 11:01:37;;;;;;;0.98;0.90;;;;;;;;;;5069704;28;20198;-73
2020/12/27 11:04:04;;;;;;;0.90;0.90;;;;;;;;;;5071169;28;20244;-73
2020/12/27 11:06:32;;;;;;;1.13;0.90;;;;;;;;;;5071226;28;20255;-74
2020/12/27 11:08:59;;;;;;;1.70;1.02;;;;;;;;;;5070211;28;20200;-73
2020/12/27 11:11:26;;;;;;;0.80;0.80;;;;;;;;;;5065972;28;20311;-74
2020/12/27 11:13:53;;;;;;;2.00;0.90;;;;;;;;;;5066416;28;20216;-74
2020/12/27 11:16:20;;;;;;;1.00;0.90;;;;;;;;;;5069145;28;20236;-75
2020/12/27 11:18:47;;;;;;;1.00;0.90;;;;;;;;;;5069066;28;20277;-74
2020/12/27 11:21:14;;;;;;;1.65;1.08;;;;;;;;;;5067435;28;20211;-74
2020/12/27 11:23:42;;;;;;;0.93;0.85;;;;;;;;;;5069782;28;20317;-75
2020/12/27 11:26:08;;;;;;;2.03;0.90;;;;;;;;;;5071417;28;20194;-77
2020/12/27 11:28:35;;;;;;;1.20;1.10;;;;;;;;;;5071250;28;20194;-75
2020/12/27 11:31:02;;;;;;;1.10;1.00;;;;;;;;;;5071244;28;20201;-76
2020/12/27 11:33:29;;;;;;;1.23;1.00;;;;;;;;;;5063852;28;20225;-74
2020/12/27 11:35:56;;;;;;;2.33;1.05;;;;;;;;;;5061555;28;20285;-74
2020/12/27 11:38:22;;;;;;;1.27;1.10;;;;;;;;;;5064977;28;20247;-74
2020/12/27 11:40:50;;;;;;;1.05;0.70;;;;;;;;;;5064457;28;20281;-73
2020/12/27 11:43:18;;;;;;;1.10;1.00;;;;;;;;;;5064704;28;20225;-75
2020/12/27 11:45:45;;;;;;;1.10;1.00;;;;;;;;;;5050637;28;20223;-74
2020/12/27 11:48:11;;;;;;;1.20;1.10;;;;;;;;;;5058243;28;20202;-75
2020/12/27 11:50:38;;;;;;;1.30;1.20;;;;;;;;;;5062836;28;20205;-74
2020/12/27 11:53:05;;;;;;;1.42;1.20;;;;;;;;;;5064912;28;20225;-74
2020/12/27 11:55:32;;;;;;;1.13;1.02;;;;;;;;;;5064421;28;20197;-74
2020/12/27 11:57:59;;;;;;;2.13;1.10;;;;;;;;;;5045784;28;20195;-74
2020/12/27 12:00:26;;;;;;;1.15;0.98;;;;;;;;;;5046151;28;20205;-74
2020/12/27 12:02:53;;;;;;;1.23;1.10;;;;;;;;;;5055400;28;20259;-74
2020/12/27 12:05:20;;;;;;;1.10;0.90;;;;;;;;;;5067324;28;20197;-74
2020/12/27 12:07:47;;;;;;;1.10;0.95;;;;;;;;;;5070399;28;20228;-73
2020/12/27 12:10:13;;;;;;;1.20;1.10;;;;;;;;;;5066745;28;20191;-74
2020/12/27 12:12:40;;;;;;;1.00;0.80;;;;;;;;;;5065580;28;20224;-74
2020/12/27 12:15:08;;;;;;;1.13;0.80;;;;;;;;;;5068015;28;20198;-74
2020/12/27 12:17:35;;;;;;;2.40;1.05;;;;;;;;;;5068094;28;20228;-74
2020/12/27 12:20:02;;;;;;;1.35;0.93;;;;;;;;;;5069034;28;20285;-74
2020/12/27 12:22:28;;;;;;;0.98;0.88;;;;;;;;;;5057199;28;20230;-74
2020/12/27 12:24:55;;;;;;;1.00;0.90;;;;;;;;;;5061443;28;20214;-74
2020/12/27 12:27:22;;;;;;;1.25;1.08;;;;;;;;;;5070284;28;20198;-74
2020/12/27 12:29:49;;;;;;;1.00;0.90;;;;;;;;;;5069927;28;20202;-73
2020/12/27 12:32:16;;;;;;;1.10;1.00;;;;;;;;;;5067707;28;20280;-74
2020/12/27 12:34:43;;;;;;;1.10;0.80;;;;;;;;;;5064328;28;20210;-72
2020/12/27 12:37:11;;;;;;;1.10;1.00;;;;;;;;;;5051105;28;20251;-72
2020/12/27 12:39:38;;;;;;;1.05;0.90;;;;;;;;;;5048410;28;20287;-73
2020/12/27 12:42:05;;;;;;;1.00;0.90;;;;;;;;;;5048578;28;20195;-74
2020/12/27 12:44:32;;;;;;;1.02;0.93;;;;;;;;;;5048203;28;20715;-74
2020/12/27 12:46:59;;;;;;;0.88;0.88;;;;;;;;;;5049527;28;20197;-74
2020/12/27 12:49:26;;;;;;;1.45;0.85;;;;;;;;;;5049825;28;20203;-74
2020/12/27 12:51:53;;;;;;;1.63;1.30;;;;;;;;;;5066855;28;20197;-74
2020/12/27 12:54:20;;;;;;;0.90;0.80;;;;;;;;;;5067544;28;20309;-74
2020/12/27 12:56:50;;;;;;;2.47;1.00;;;;;;;;;;5063078;28;20449;-74
2020/12/27 12:59:16;;;;;;;0.80;0.80;;;;;;;;;;5066885;28;20560;-74
2020/12/27 13:01:49;;;;;;;1.17;0.98;;;;;;;;;;5067818;28;20550;-75
2020/12/27 13:04:16;;;;;;;0.90;0.80;;;;;;;;;;5067057;28;21031;-74
2020/12/27 13:06:47;;;;;;;1.15;0.98;;;;;;;;;;5060657;28;20732;-74
2020/12/27 13:09:14;;;;;;;1.20;1.00;;;;;;;;;;5049622;28;20544;-74
2020/12/27 13:11:41;;;;;;;1.33;1.23;;;;;;;;;;5049103;28;20207;-74
2020/12/27 13:14:08;;;;;;;0.90;0.82;;;;;;;;;;5053618;28;20808;-75
2020/12/27 13:16:35;;;;;;;1.00;0.80;;;;;;;;;;5068557;28;20683;-78
2020/12/27 13:19:01;;;;;;;2.38;1.20;;;;;;;;;;5066305;28;20199;-80
2020/12/27 13:21:28;;;;;;;0.98;0.88;;;;;;;;;;5070564;28;20906;-81
2020/12/27 13:23:56;;;;;;;1.00;0.90;;;;;;;;;;5067692;28;20301;-75
2020/12/27 13:26:23;;;;;;;1.00;0.85;;;;;;;;;;5070873;28;20191;-74
2020/12/27 13:28:49;;;;;;;1.00;0.90;;;;;;;;;;5063639;28;20211;-75
2020/12/27 13:31:16;;;;;;;1.15;0.80;;;;;;;;;;5053231;28;20259;-74
2020/12/27 13:33:43;;;;;;;1.00;0.90;;;;;;;;;;5068016;28;20627;-75
2020/12/27 13:36:10;;;;;;;0.90;0.77;;;;;;;;;;5072606;28;20288;-75
2020/12/27 13:38:37;;;;;;;0.70;0.70;;;;;;;;;;5063933;28;20247;-74
2020/12/27 13:41:04;;;;;;;1.88;0.73;;;;;;;;;;5066960;28;20207;-74
2020/12/27 13:43:31;;;;;;;0.80;0.68;;;;;;;;;;5064670;28;20237;-74
2020/12/27 13:45:58;;;;;;;1.00;0.90;;;;;;;;;;5050804;28;20209;-75
2020/12/27 13:48:25;;;;;;;1.10;0.90;;;;;;;;;;5050569;28;20271;-74
2020/12/27 13:50:51;;;;;;;1.73;1.17;;;;;;;;;;5057305;28;20198;-74
2020/12/27 13:53:18;;;;;;;1.50;1.08;;;;;;;;;;5070534;28;20630;-75
2020/12/27 13:55:47;;;;;;;1.17;1.08;;;;;;;;;;5072241;28;20197;-75
2020/12/27 13:58:14;;;;;;;1.05;0.90;;;;;;;;;;5072351;28;20251;-75
2020/12/27 14:00:41;;;;;;;1.60;0.93;;;;;;;;;;5072312;28;20194;-74
2020/12/27 14:03:08;;;;;;;0.90;0.80;;;;;;;;;;5066350;28;20249;-74
2020/12/27 14:05:35;;;;;;;1.00;0.80;;;;;;;;;;5067961;28;20666;-74
2020/12/27 14:08:01;;;;;;;1.05;0.82;;;;;;;;;;5070280;28;20285;-78
2020/12/27 14:10:28;;;;;;;1.13;0.93;;;;;;;;;;5069310;28;20235;-78
2020/12/27 14:12:55;;;;;;;1.00;0.80;;;;;;;;;;5070076;28;20224;-75
2020/12/27 14:15:23;;;;;;;1.10;0.95;;;;;;;;;;5052701;28;20206;-76
2020/12/27 14:17:49;;;;;;;1.10;1.00;;;;;;;;;;5051707;28;20213;-75
2020/12/27 14:20:16;;;;;;;1.10;1.00;;;;;;;;;;5059618;28;20193;-73
2020/12/27 14:22:43;;;;;;;0.90;0.85;;;;;;;;;;5062996;28;20226;-75
2020/12/27 14:25:10;;;;;;;1.10;1.00;;;;;;;;;;5059575;28;20191;-76
2020/12/27 14:27:36;;;;;;;0.90;0.90;;;;;;;;;;5049066;28;20648;-75
2020/12/27 14:30:03;;;;;;;1.30;1.10;;;;;;;;;;5044221;28;20260;-76
2020/12/27 14:32:31;;;;;;;1.00;0.90;;;;;;;;;;5045242;28;20213;-74
2020/12/27 14:34:58;;;;;;;1.05;0.95;;;;;;;;;;5062415;28;20218;-73
2020/12/27 14:37:25;;;;;;;1.80;1.00;;;;;;;;;;5067024;28;20198;-74
2020/12/27 14:39:51;;;;;;;0.70;0.70;;;;;;;;;;5069111;28;20200;-76
2020/12/27 14:42:18;;;;;;;0.90;0.80;;;;;;;;;;5055264;28;20745;-75
2020/12/27 14:44:45;;;;;;;1.05;0.90;;;;;;;;;;5069263;28;20272;-74
2020/12/27 14:47:12;;;;;;;1.30;0.90;;;;;;;;;;5062651;28;20547;-75